sensor_id;sensor_type;location;lat;lon;timestamp;pressure;altitude;pressure_sealevel;temperature;humidity
15444;BME280;7822;48.146;11.576;2024-03-08T00:00:23;94971.75;;;14.96;52.36
15444;BME280;7822;48.146;11.576;2024-03-08T00:02:50;94970.16;;;14.95;51.54
15444;BME280;7822;48.146;11.576;2024-03-08T00:05:18;94971.94;;;14.95;51.13
15444;BME280;7822;48.146;11.576;2024-03-08T00:07:46;94971.94;;;14.95;51.48
15444;BME280;7822;48.146;11.576;2024-03-08T00:10:13;94970.28;;;14.94;50.96
15444;BME280;7822;48.146;11.576;2024-03-08T00:12:44;94967.00;;;14.92;50.91
15444;BME280;7822;48.146;11.576;2024-03-08T00:15:13;94958.38;;;14.91;50.85
15444;BME280;7822;48.146;11.576;2024-03-08T00:17:43;94963.59;;;14.91;51.39
15444;BME280;7822;48.146;11.576;2024-03-08T00:20:11;94956.72;;;14.90;51.11
15444;BME280;7822;48.146;11.576;2024-03-08T00:22:40;94967.16;;;14.90;50.90
15444;BME280;7822;48.146;11.576;2024-03-08T00:25:07;94962.13;;;14.89;50.59
15444;BME280;7822;48.146;11.576;2024-03-08T00:27:36;94957.84;;;14.88;50.57
15444;BME280;7822;48.146;11.576;2024-03-08T00:30:06;94959.63;;;14.87;50.13
15444;BME280;7822;48.146;11.576;2024-03-08T00:32:34;94949.19;;;14.87;50.21
15444;BME280;7822;48.146;11.576;2024-03-08T00:35:04;94943.16;;;14.87;50.41
15444;BME280;7822;48.146;11.576;2024-03-08T00:37:33;94946.75;;;14.85;49.81
15444;BME280;7822;48.146;11.576;2024-03-08T00:40:01;94949.53;;;14.84;50.45
15444;BME280;7822;48.146;11.576;2024-03-08T00:42:29;94939.91;;;14.84;49.81
15444;BME280;7822;48.146;11.576;2024-03-08T00:44:56;94937.28;;;14.84;50.03
15444;BME280;7822;48.146;11.576;2024-03-08T00:47:26;94932.19;;;14.83;49.68
15444;BME280;7822;48.146;11.576;2024-03-08T00:49:54;94934.00;;;14.82;49.55
15444;BME280;7822;48.146;11.576;2024-03-08T00:52:22;94933.19;;;14.82;49.63
15444;BME280;7822;48.146;11.576;2024-03-08T00:54:51;94925.34;;;14.82;49.70
15444;BME280;7822;48.146;11.576;2024-03-08T00:57:19;94927.97;;;14.82;49.82
15444;BME280;7822;48.146;11.576;2024-03-08T00:59:47;94927.31;;;14.80;49.87
15444;BME280;7822;48.146;11.576;2024-03-08T01:02:15;94931.53;;;14.81;49.37
15444;BME280;7822;48.146;11.576;2024-03-08T01:04:46;94920.44;;;14.79;49.39
15444;BME280;7822;48.146;11.576;2024-03-08T01:07:14;94921.25;;;14.79;48.97
15444;BME280;7822;48.146;11.576;2024-03-08T01:09:42;94913.59;;;14.78;48.73
15444;BME280;7822;48.146;11.576;2024-03-08T01:12:09;94910.97;;;14.78;48.95
15444;BME280;7822;48.146;11.576;2024-03-08T01:14:37;94907.53;;;14.77;49.05
15444;BME280;7822;48.146;11.576;2024-03-08T01:17:05;94910.16;;;14.77;49.14
15444;BME280;7822;48.146;11.576;2024-03-08T01:19:33;94904.09;;;14.77;48.62
15444;BME280;7822;48.146;11.576;2024-03-08T01:22:02;94897.22;;;14.76;48.40
15444;BME280;7822;48.146;11.576;2024-03-08T01:24:29;94886.00;;;14.75;48.80
15444;BME280;7822;48.146;11.576;2024-03-08T01:26:57;94894.63;;;14.76;48.97
15444;BME280;7822;48.146;11.576;2024-03-08T01:29:24;94887.78;;;14.75;48.34
15444;BME280;7822;48.146;11.576;2024-03-08T01:31:52;94879.94;;;14.75;48.37
15444;BME280;7822;48.146;11.576;2024-03-08T01:34:19;94882.56;;;14.75;48.18
15444;BME280;7822;48.146;11.576;2024-03-08T01:36:47;94880.09;;;14.73;47.63
15444;BME280;7822;48.146;11.576;2024-03-08T01:39:16;94879.13;;;14.74;48.30
15444;BME280;7822;48.146;11.576;2024-03-08T01:41:43;94881.72;;;14.74;48.69
15444;BME280;7822;48.146;11.576;2024-03-08T01:44:11;94878.28;;;14.74;49.22
15444;BME280;7822;48.146;11.576;2024-03-08T01:46:42;94867.84;;;14.74;49.39
15444;BME280;7822;48.146;11.576;2024-03-08T01:49:10;94861.84;;;14.73;49.33
15444;BME280;7822;48.146;11.576;2024-03-08T01:51:39;94866.88;;;14.75;49.61
15444;BME280;7822;48.146;11.576;2024-03-08T01:54:07;94869.66;;;14.73;49.21
15444;BME280;7822;48.146;11.576;2024-03-08T01:56:37;94862.78;;;14.72;49.03
15444;BME280;7822;48.146;11.576;2024-03-08T01:59:06;94854.97;;;14.72;49.46
15444;BME280;7822;48.146;11.576;2024-03-08T02:01:34;94858.41;;;14.73;49.21
15444;BME280;7822;48.146;11.576;2024-03-08T02:04:01;94855.94;;;14.71;49.07
15444;BME280;7822;48.146;11.576;2024-03-08T02:06:29;94853.16;;;14.73;49.32
15444;BME280;7822;48.146;11.576;2024-03-08T02:08:57;94846.31;;;14.72;49.59
15444;BME280;7822;48.146;11.576;2024-03-08T02:11:25;94839.47;;;14.71;49.47
15444;BME280;7822;48.146;11.576;2024-03-08T02:13:54;94839.28;;;14.72;50.10
15444;BME280;7822;48.146;11.576;2024-03-08T02:16:22;94847.28;;;14.71;49.32
15444;BME280;7822;48.146;11.576;2024-03-08T02:18:49;94838.47;;;14.72;49.32
15444;BME280;7822;48.146;11.576;2024-03-08T02:21:18;94835.19;;;14.70;49.43
15444;BME280;7822;48.146;11.576;2024-03-08T02:23:46;94834.38;;;14.69;49.23
15444;BME280;7822;48.146;11.576;2024-03-08T02:26:13;94836.97;;;14.69;49.79
15444;BME280;7822;48.146;11.576;2024-03-08T02:28:41;94830.97;;;14.69;49.37
15444;BME280;7822;48.146;11.576;2024-03-08T02:31:10;94833.56;;;14.69;49.42
15444;BME280;7822;48.146;11.576;2024-03-08T02:33:38;94834.38;;;14.69;49.31
15444;BME280;7822;48.146;11.576;2024-03-08T02:36:06;94829.31;;;14.68;48.99
15444;BME280;7822;48.146;11.576;2024-03-08T02:38:35;94832.75;;;14.68;49.04
15444;BME280;7822;48.146;11.576;2024-03-08T02:41:02;94828.50;;;14.67;49.18
15444;BME280;7822;48.146;11.576;2024-03-08T02:43:31;94828.50;;;14.67;49.18
15444;BME280;7822;48.146;11.576;2024-03-08T02:45:58;94822.31;;;14.68;49.16
15444;BME280;7822;48.146;11.576;2024-03-08T02:48:26;94822.31;;;14.68;49.19
15444;BME280;7822;48.146;11.576;2024-03-08T02:50:54;94819.69;;;14.68;49.44
15444;BME280;7822;48.146;11.576;2024-03-08T02:53:21;94818.88;;;14.68;49.40
15444;BME280;7822;48.146;11.576;2024-03-08T02:55:52;94822.47;;;14.67;49.21
15444;BME280;7822;48.146;11.576;2024-03-08T02:58:19;94819.03;;;14.66;49.01
15444;BME280;7822;48.146;11.576;2024-03-08T03:00:47;94817.25;;;14.67;49.57
15444;BME280;7822;48.146;11.576;2024-03-08T03:03:14;94818.06;;;14.67;49.23
15444;BME280;7822;48.146;11.576;2024-03-08T03:05:42;94802.38;;;14.67;49.44
15444;BME280;7822;48.146;11.576;2024-03-08T03:08:14;94809.25;;;14.68;49.67
15444;BME280;7822;48.146;11.576;2024-03-08T03:10:43;94807.47;;;14.69;49.78
15444;BME280;7822;48.146;11.576;2024-03-08T03:13:13;94805.00;;;14.67;49.67
15444;BME280;7822;48.146;11.576;2024-03-08T03:15:41;94800.59;;;14.68;49.39
15444;BME280;7822;48.146;11.576;2024-03-08T03:18:08;94802.38;;;14.67;49.41
15444;BME280;7822;48.146;11.576;2024-03-08T03:20:36;94800.78;;;14.66;49.28
15444;BME280;7822;48.146;11.576;2024-03-08T03:23:07;94801.72;;;14.65;48.68
15444;BME280;7822;48.146;11.576;2024-03-08T03:25:35;94797.50;;;14.64;48.88
15444;BME280;7822;48.146;11.576;2024-03-08T03:28:05;94802.72;;;14.64;49.43
15444;BME280;7822;48.146;11.576;2024-03-08T03:30:35;94796.69;;;14.64;49.01
15444;BME280;7822;48.146;11.576;2024-03-08T03:33:03;94799.28;;;14.64;49.11
15444;BME280;7822;48.146;11.576;2024-03-08T03:35:33;94795.72;;;14.65;48.78
15444;BME280;7822;48.146;11.576;2024-03-08T03:38:03;94800.25;;;14.63;48.18
15444;BME280;7822;48.146;11.576;2024-03-08T03:40:34;94794.22;;;14.62;47.76
15444;BME280;7822;48.146;11.576;2024-03-08T03:43:02;94792.59;;;14.61;47.08
15444;BME280;7822;48.146;11.576;2024-03-08T03:45:30;94804.81;;;14.61;47.48
15444;BME280;7822;48.146;11.576;2024-03-08T03:48:04;94789.16;;;14.61;47.15
15444;BME280;7822;48.146;11.576;2024-03-08T03:50:33;94793.56;;;14.60;46.77
15444;BME280;7822;48.146;11.576;2024-03-08T03:53:02;94782.31;;;14.60;46.94
15444;BME280;7822;48.146;11.576;2024-03-08T03:55:30;94790.13;;;14.60;47.63
15444;BME280;7822;48.146;11.576;2024-03-08T03:57:58;94790.13;;;14.60;47.22
15444;BME280;7822;48.146;11.576;2024-03-08T04:00:27;94782.44;;;14.58;46.72
15444;BME280;7822;48.146;11.576;2024-03-08T04:02:55;94780.81;;;14.57;46.60
15444;BME280;7822;48.146;11.576;2024-03-08T04:05:27;94784.25;;;14.58;46.53
15444;BME280;7822;48.146;11.576;2024-03-08T04:07:54;94777.22;;;14.58;46.40
15444;BME280;7822;48.146;11.576;2024-03-08T04:10:23;94782.44;;;14.58;46.80
15444;BME280;7822;48.146;11.576;2024-03-08T04:12:51;94779.03;;;14.58;46.50
15444;BME280;7822;48.146;11.576;2024-03-08T04:15:18;94781.66;;;14.58;46.78
15444;BME280;7822;48.146;11.576;2024-03-08T04:17:46;94786.88;;;14.58;46.90
15444;BME280;7822;48.146;11.576;2024-03-08T04:20:14;94784.25;;;14.58;47.29
15444;BME280;7822;48.146;11.576;2024-03-08T04:22:45;94778.22;;;14.57;46.98
15444;BME280;7822;48.146;11.576;2024-03-08T04:25:13;94777.41;;;14.57;47.09
15444;BME280;7822;48.146;11.576;2024-03-08T04:27:41;94775.59;;;14.57;47.18
15444;BME280;7822;48.146;11.576;2024-03-08T04:30:08;94779.19;;;14.56;47.32
15444;BME280;7822;48.146;11.576;2024-03-08T04:32:36;94768.75;;;14.56;47.17
15444;BME280;7822;48.146;11.576;2024-03-08T04:35:04;94773.16;;;14.56;47.44
15444;BME280;7822;48.146;11.576;2024-03-08T04:37:32;94773.16;;;14.56;47.30
15444;BME280;7822;48.146;11.576;2024-03-08T04:40:01;94776.56;;;14.56;47.71
15444;BME280;7822;48.146;11.576;2024-03-08T04:42:29;94771.50;;;14.55;47.37
15444;BME280;7822;48.146;11.576;2024-03-08T04:44:59;94770.56;;;14.56;47.38
15444;BME280;7822;48.146;11.576;2024-03-08T04:47:27;94778.53;;;14.54;47.37
15444;BME280;7822;48.146;11.576;2024-03-08T04:49:54;94769.91;;;14.54;47.13
15444;BME280;7822;48.146;11.576;2024-03-08T04:52:22;94765.47;;;14.54;46.51
15444;BME280;7822;48.146;11.576;2024-03-08T04:54:50;94769.06;;;14.53;46.62
15444;BME280;7822;48.146;11.576;2024-03-08T04:57:19;94776.91;;;14.53;47.14
15444;BME280;7822;48.146;11.576;2024-03-08T04:59:47;94765.63;;;14.53;46.43
15444;BME280;7822;48.146;11.576;2024-03-08T05:02:14;94764.00;;;14.52;46.55
15444;BME280;7822;48.146;11.576;2024-03-08T05:04:42;94771.69;;;14.53;46.09
15444;BME280;7822;48.146;11.576;2024-03-08T05:07:09;94769.22;;;14.52;45.89
15444;BME280;7822;48.146;11.576;2024-03-08T05:09:37;94767.41;;;14.52;45.76
15444;BME280;7822;48.146;11.576;2024-03-08T05:12:06;94761.25;;;14.53;46.28
15444;BME280;7822;48.146;11.576;2024-03-08T05:14:35;94769.91;;;14.54;46.84
15444;BME280;7822;48.146;11.576;2024-03-08T05:17:03;94769.06;;;14.53;47.06
15444;BME280;7822;48.146;11.576;2024-03-08T05:19:33;94765.47;;;14.54;46.54
15444;BME280;7822;48.146;11.576;2024-03-08T05:22:00;94758.63;;;14.53;46.87
15444;BME280;7822;48.146;11.576;2024-03-08T05:24:29;94754.22;;;14.54;46.50
15444;BME280;7822;48.146;11.576;2024-03-08T05:26:57;94752.59;;;14.53;46.87
15444;BME280;7822;48.146;11.576;2024-03-08T05:29:26;94749.00;;;14.54;46.86
15444;BME280;7822;48.146;11.576;2024-03-08T05:31:56;94746.41;;;14.54;46.60
15444;BME280;7822;48.146;11.576;2024-03-08T05:34:24;94746.41;;;14.54;46.57
15444;BME280;7822;48.146;11.576;2024-03-08T05:36:52;94755.03;;;14.54;46.16
15444;BME280;7822;48.146;11.576;2024-03-08T05:39:21;94745.72;;;14.52;45.79
15444;BME280;7822;48.146;11.576;2024-03-08T05:41:49;94741.31;;;14.52;46.04
15444;BME280;7822;48.146;11.576;2024-03-08T05:44:17;94750.16;;;14.51;45.85
15444;BME280;7822;48.146;11.576;2024-03-08T05:46:45;94746.53;;;14.52;45.67
15444;BME280;7822;48.146;11.576;2024-03-08T05:49:14;94750.16;;;14.51;45.78
15444;BME280;7822;48.146;11.576;2024-03-08T05:51:42;94742.97;;;14.53;47.31
15444;BME280;7822;48.146;11.576;2024-03-08T05:54:10;94742.81;;;14.55;47.20
15444;BME280;7822;48.146;11.576;2024-03-08T05:56:42;94747.84;;;14.56;47.67
15444;BME280;7822;48.146;11.576;2024-03-08T05:59:11;94745.09;;;14.58;47.90
15444;BME280;7822;48.146;11.576;2024-03-08T06:01:40;94740.53;;;14.60;48.58
15444;BME280;7822;48.146;11.576;2024-03-08T06:04:08;94741.38;;;14.60;49.01
15444;BME280;7822;48.146;11.576;2024-03-08T06:06:39;94737.75;;;14.61;49.23
15444;BME280;7822;48.146;11.576;2024-03-08T06:09:07;94740.38;;;14.61;49.47
15444;BME280;7822;48.146;11.576;2024-03-08T06:11:39;94743.63;;;14.63;49.52
15444;BME280;7822;48.146;11.576;2024-03-08T06:14:07;94739.41;;;14.62;49.94
15444;BME280;7822;48.146;11.576;2024-03-08T06:16:35;94731.41;;;14.64;49.98
15444;BME280;7822;48.146;11.576;2024-03-08T06:19:02;94730.44;;;14.65;50.31
15444;BME280;7822;48.146;11.576;2024-03-08T06:21:30;94730.44;;;14.65;50.27
15444;BME280;7822;48.146;11.576;2024-03-08T06:24:00;94731.25;;;14.65;50.42
15444;BME280;7822;48.146;11.576;2024-03-08T06:26:27;94738.13;;;14.66;50.65
15444;BME280;7822;48.146;11.576;2024-03-08T06:28:57;94747.56;;;14.67;50.69
15444;BME280;7822;48.146;11.576;2024-03-08T06:31:25;94738.78;;;14.68;51.06
15444;BME280;7822;48.146;11.576;2024-03-08T06:33:52;94738.78;;;14.68;51.14
15444;BME280;7822;48.146;11.576;2024-03-08T06:36:21;94736.97;;;14.69;51.36
15444;BME280;7822;48.146;11.576;2024-03-08T06:38:49;94738.59;;;14.70;51.41
15444;BME280;7822;48.146;11.576;2024-03-08T06:41:18;94744.66;;;14.70;51.60
15444;BME280;7822;48.146;11.576;2024-03-08T06:43:46;94739.41;;;14.70;51.55
15444;BME280;7822;48.146;11.576;2024-03-08T06:46:14;94741.06;;;14.71;51.88
15444;BME280;7822;48.146;11.576;2024-03-08T06:48:42;94735.84;;;14.71;51.78
15444;BME280;7822;48.146;11.576;2024-03-08T06:51:11;94742.69;;;14.72;51.75
15444;BME280;7822;48.146;11.576;2024-03-08T06:53:39;94740.72;;;14.74;51.90
15444;BME280;7822;48.146;11.576;2024-03-08T06:56:06;94740.72;;;14.74;52.04
15444;BME280;7822;48.146;11.576;2024-03-08T06:58:36;94746.78;;;14.75;51.94
15444;BME280;7822;48.146;11.576;2024-03-08T07:01:03;94740.72;;;14.74;52.08
15444;BME280;7822;48.146;11.576;2024-03-08T07:03:34;94735.50;;;14.74;52.15
15444;BME280;7822;48.146;11.576;2024-03-08T07:06:02;94736.34;;;14.75;51.93
15444;BME280;7822;48.146;11.576;2024-03-08T07:08:33;94737.16;;;14.75;52.27
15444;BME280;7822;48.146;11.576;2024-03-08T07:11:01;94740.56;;;14.76;51.94
15444;BME280;7822;48.146;11.576;2024-03-08T07:13:29;94739.59;;;14.77;52.23
15444;BME280;7822;48.146;11.576;2024-03-08T07:15:59;94732.72;;;14.76;52.33
15444;BME280;7822;48.146;11.576;2024-03-08T07:18:27;94731.75;;;14.77;52.48
15444;BME280;7822;48.146;11.576;2024-03-08T07:20:57;94733.56;;;14.76;52.41
15444;BME280;7822;48.146;11.576;2024-03-08T07:23:25;94729.16;;;14.77;52.54
15444;BME280;7822;48.146;11.576;2024-03-08T07:26:10;94728.19;;;14.78;52.58
15444;BME280;7822;48.146;11.576;2024-03-08T07:28:37;94721.31;;;14.77;52.53
15444;BME280;7822;48.146;11.576;2024-03-08T07:31:06;94721.97;;;14.79;52.40
15444;BME280;7822;48.146;11.576;2024-03-08T07:33:47;94720.34;;;14.78;52.32
15444;BME280;7822;48.146;11.576;2024-03-08T07:36:16;94716.75;;;14.79;52.08
15444;BME280;7822;48.146;11.576;2024-03-08T07:38:44;94724.59;;;14.79;52.25
15444;BME280;7822;48.146;11.576;2024-03-08T07:41:13;94715.13;;;14.78;52.27
15444;BME280;7822;48.146;11.576;2024-03-08T07:43:42;94714.16;;;14.79;52.50
15444;BME280;7822;48.146;11.576;2024-03-08T07:46:11;94725.41;;;14.79;52.43
15444;BME280;7822;48.146;11.576;2024-03-08T07:48:39;94718.41;;;14.80;52.82
15444;BME280;7822;48.146;11.576;2024-03-08T07:51:07;94718.41;;;14.80;52.97
15444;BME280;7822;48.146;11.576;2024-03-08T07:53:35;94716.59;;;14.80;52.78
15444;BME280;7822;48.146;11.576;2024-03-08T07:56:04;94708.75;;;14.80;52.86
15444;BME280;7822;48.146;11.576;2024-03-08T07:58:32;94714.78;;;14.81;53.00
15444;BME280;7822;48.146;11.576;2024-03-08T08:01:01;94705.19;;;14.81;53.28
15444;BME280;7822;48.146;11.576;2024-03-08T08:03:30;94711.22;;;14.82;53.12
15444;BME280;7822;48.146;11.576;2024-03-08T08:05:57;94707.78;;;14.81;53.33
15444;BME280;7822;48.146;11.576;2024-03-08T08:08:25;94706.81;;;14.82;53.33
15444;BME280;7822;48.146;11.576;2024-03-08T08:10:53;94705.00;;;14.83;53.41
15444;BME280;7822;48.146;11.576;2024-03-08T08:13:21;94706.66;;;14.84;53.43
15444;BME280;7822;48.146;11.576;2024-03-08T08:15:49;94697.16;;;14.83;53.54
15444;BME280;7822;48.146;11.576;2024-03-08T08:18:17;94698.00;;;14.83;53.53
15444;BME280;7822;48.146;11.576;2024-03-08T08:20:47;94691.94;;;14.83;53.46
15444;BME280;7822;48.146;11.576;2024-03-08T08:23:15;94700.59;;;14.83;53.83
15444;BME280;7822;48.146;11.576;2024-03-08T08:25:42;94701.44;;;14.84;53.83
15444;BME280;7822;48.146;11.576;2024-03-08T08:28:10;94696.22;;;14.84;53.70
15444;BME280;7822;48.146;11.576;2024-03-08T08:30:38;94697.16;;;14.83;53.86
15444;BME280;7822;48.146;11.576;2024-03-08T08:33:06;94698.81;;;14.84;53.65
15444;BME280;7822;48.146;11.576;2024-03-08T08:35:34;94694.56;;;14.83;53.79
15444;BME280;7822;48.146;11.576;2024-03-08T08:38:03;94692.78;;;14.83;53.87
15444;BME280;7822;48.146;11.576;2024-03-08T08:40:31;94690.97;;;14.84;53.82
15444;BME280;7822;48.146;11.576;2024-03-08T08:42:59;94683.16;;;14.84;53.83
15444;BME280;7822;48.146;11.576;2024-03-08T08:45:26;94679.72;;;14.83;53.85
15444;BME280;7822;48.146;11.576;2024-03-08T08:47:54;94682.31;;;14.83;54.17
15444;BME280;7822;48.146;11.576;2024-03-08T08:50:22;94680.53;;;14.84;54.05
15444;BME280;7822;48.146;11.576;2024-03-08T08:52:50;94665.69;;;14.84;53.86
15444;BME280;7822;48.146;11.576;2024-03-08T08:55:21;94672.72;;;14.84;53.96
15444;BME280;7822;48.146;11.576;2024-03-08T08:57:52;94672.72;;;14.84;54.13
15444;BME280;7822;48.146;11.576;2024-03-08T09:00:19;94677.75;;;14.85;54.06
15444;BME280;7822;48.146;11.576;2024-03-08T09:02:48;94673.53;;;14.84;54.09
15444;BME280;7822;48.146;11.576;2024-03-08T09:05:17;94663.88;;;14.85;54.21
15444;BME280;7822;48.146;11.576;2024-03-08T09:07:45;94657.84;;;14.84;54.13
15444;BME280;7822;48.146;11.576;2024-03-08T09:10:12;94656.03;;;14.85;54.35
15444;BME280;7822;48.146;11.576;2024-03-08T09:12:44;94657.84;;;14.84;54.06
15444;BME280;7822;48.146;11.576;2024-03-08T09:15:12;94648.22;;;14.85;54.37
15444;BME280;7822;48.146;11.576;2024-03-08T09:17:40;94649.03;;;14.85;54.49
15444;BME280;7822;48.146;11.576;2024-03-08T09:20:09;94642.97;;;14.85;54.45
15444;BME280;7822;48.146;11.576;2024-03-08T09:22:43;94646.41;;;14.85;54.57
15444;BME280;7822;48.146;11.576;2024-03-08T09:25:10;94639.41;;;14.86;54.52
15444;BME280;7822;48.146;11.576;2024-03-08T09:27:38;94628.97;;;14.86;54.71
15444;BME280;7822;48.146;11.576;2024-03-08T09:30:07;94629.78;;;14.87;54.60
15444;BME280;7822;48.146;11.576;2024-03-08T09:32:35;94631.56;;;14.86;54.60
15444;BME280;7822;48.146;11.576;2024-03-08T09:35:04;94628.13;;;14.85;54.46
15444;BME280;7822;48.146;11.576;2024-03-08T09:37:33;94626.34;;;14.86;54.96
15444;BME280;7822;48.146;11.576;2024-03-08T09:40:01;94621.13;;;14.86;54.66
15444;BME280;7822;48.146;11.576;2024-03-08T09:42:35;94618.53;;;14.86;54.50
15444;BME280;7822;48.146;11.576;2024-03-08T09:45:05;94615.91;;;14.86;54.52
15444;BME280;7822;48.146;11.576;2024-03-08T09:47:38;94618.53;;;14.86;54.94
15444;BME280;7822;48.146;11.576;2024-03-08T09:50:07;94612.28;;;14.87;54.59
15444;BME280;7822;48.146;11.576;2024-03-08T09:52:35;94618.34;;;14.88;54.72
15444;BME280;7822;48.146;11.576;2024-03-08T09:55:04;94616.72;;;14.87;54.74
15444;BME280;7822;48.146;11.576;2024-03-08T09:57:31;94617.53;;;14.87;54.92
15444;BME280;7822;48.146;11.576;2024-03-08T09:59:58;94619.16;;;14.88;54.98
15444;BME280;7822;48.146;11.576;2024-03-08T10:02:26;94611.34;;;14.88;54.91
15444;BME280;7822;48.146;11.576;2024-03-08T10:04:56;94608.91;;;14.87;55.20
15444;BME280;7822;48.146;11.576;2024-03-08T10:07:24;94613.13;;;14.88;54.99
15444;BME280;7822;48.146;11.576;2024-03-08T10:09:52;94614.75;;;14.89;55.09
15444;BME280;7822;48.146;11.576;2024-03-08T10:12:19;94603.31;;;14.90;55.22
15444;BME280;7822;48.146;11.576;2024-03-08T10:14:47;94599.25;;;14.87;55.14
15444;BME280;7822;48.146;11.576;2024-03-08T10:17:16;94606.94;;;14.89;55.30
15444;BME280;7822;48.146;11.576;2024-03-08T10:19:50;94598.28;;;14.88;55.30
15444;BME280;7822;48.146;11.576;2024-03-08T10:22:21;94602.53;;;14.89;55.25
15444;BME280;7822;48.146;11.576;2024-03-08T10:24:48;94587.66;;;14.90;55.41
15444;BME280;7822;48.146;11.576;2024-03-08T10:27:16;94592.88;;;14.90;55.60
15444;BME280;7822;48.146;11.576;2024-03-08T10:29:46;94586.88;;;14.89;55.46
15444;BME280;7822;48.146;11.576;2024-03-08T10:32:14;94581.63;;;14.89;55.49
15444;BME280;7822;48.146;11.576;2024-03-08T10:34:42;94578.22;;;14.89;55.55
15444;BME280;7822;48.146;11.576;2024-03-08T10:37:12;94582.44;;;14.90;55.52
15444;BME280;7822;48.146;11.576;2024-03-08T10:39:45;94583.44;;;14.89;55.71
15444;BME280;7822;48.146;11.576;2024-03-08T10:42:16;94578.22;;;14.89;55.78
15444;BME280;7822;48.146;11.576;2024-03-08T10:44:49;94573.81;;;14.89;55.59
15444;BME280;7822;48.146;11.576;2024-03-08T10:47:18;94575.59;;;14.89;55.84
15444;BME280;7822;48.146;11.576;2024-03-08T10:49:50;94575.59;;;14.89;55.83
15444;BME280;7822;48.146;11.576;2024-03-08T10:52:18;94578.84;;;14.91;55.90
15444;BME280;7822;48.146;11.576;2024-03-08T10:54:48;94571.97;;;14.90;55.70
15444;BME280;7822;48.146;11.576;2024-03-08T10:57:17;94570.38;;;14.89;55.85
15444;BME280;7822;48.146;11.576;2024-03-08T10:59:45;94566.75;;;14.90;55.91
15444;BME280;7822;48.146;11.576;2024-03-08T11:02:13;94560.75;;;14.89;55.87
15444;BME280;7822;48.146;11.576;2024-03-08T11:04:45;94557.31;;;14.89;56.00
15444;BME280;7822;48.146;11.576;2024-03-08T11:07:13;94555.53;;;14.89;55.92
15444;BME280;7822;48.146;11.576;2024-03-08T11:09:44;94550.31;;;14.89;55.78
15444;BME280;7822;48.146;11.576;2024-03-08T11:12:19;94529.56;;;14.88;56.02
15444;BME280;7822;48.146;11.576;2024-03-08T11:14:47;94542.47;;;14.89;56.11
15444;BME280;7822;48.146;11.576;2024-03-08T11:17:16;94538.03;;;14.90;56.07
15444;BME280;7822;48.146;11.576;2024-03-08T11:19:49;94537.06;;;14.91;56.05
15444;BME280;7822;48.146;11.576;2024-03-08T11:22:22;94538.84;;;14.90;56.09
15444;BME280;7822;48.146;11.576;2024-03-08T11:24:53;94531.84;;;14.91;56.10
15444;BME280;7822;48.146;11.576;2024-03-08T11:27:22;94529.25;;;14.91;56.17
15444;BME280;7822;48.146;11.576;2024-03-08T11:30:01;94521.41;;;14.91;56.04
15444;BME280;7822;48.146;11.576;2024-03-08T11:32:44;94518.78;;;14.91;56.15
15444;BME280;7822;48.146;11.576;2024-03-08T11:35:17;94531.84;;;14.91;56.18
15444;BME280;7822;48.146;11.576;2024-03-08T11:37:45;94522.22;;;14.91;56.22
15444;BME280;7822;48.146;11.576;2024-03-08T11:40:14;94523.84;;;14.92;56.07
15444;BME280;7822;48.146;11.576;2024-03-08T11:42:45;94516.00;;;14.92;56.42
15444;BME280;7822;48.146;11.576;2024-03-08T11:45:14;94517.00;;;14.91;56.10
15444;BME280;7822;48.146;11.576;2024-03-08T11:47:44;94514.38;;;14.91;56.13
15444;BME280;7822;48.146;11.576;2024-03-08T11:50:12;94513.75;;;14.89;55.97
15444;BME280;7822;48.146;11.576;2024-03-08T11:52:40;94504.91;;;14.90;55.81
15444;BME280;7822;48.146;11.576;2024-03-08T11:55:08;94503.13;;;14.91;55.47
15444;BME280;7822;48.146;11.576;2024-03-08T11:57:36;94498.72;;;14.91;55.55
15444;BME280;7822;48.146;11.576;2024-03-08T12:00:06;94494.47;;;14.90;55.61
15444;BME280;7822;48.146;11.576;2024-03-08T12:02:34;94485.66;;;14.91;55.57
15444;BME280;7822;48.146;11.576;2024-03-08T12:05:04;94490.88;;;14.91;55.08
15444;BME280;7822;48.146;11.576;2024-03-08T12:07:35;94489.06;;;14.92;54.85
15444;BME280;7822;48.146;11.576;2024-03-08T12:10:16;94468.16;;;14.92;54.70
15444;BME280;7822;48.146;11.576;2024-03-08T12:12:44;94472.59;;;14.91;54.71
15444;BME280;7822;48.146;11.576;2024-03-08T12:15:14;94468.16;;;14.92;54.57
15444;BME280;7822;48.146;11.576;2024-03-08T12:17:42;94469.81;;;14.93;54.64
15444;BME280;7822;48.146;11.576;2024-03-08T12:20:14;94468.03;;;14.93;54.51
15444;BME280;7822;48.146;11.576;2024-03-08T12:22:42;94467.19;;;14.93;54.37
15444;BME280;7822;48.146;11.576;2024-03-08T12:25:10;94467.03;;;14.94;54.44
15444;BME280;7822;48.146;11.576;2024-03-08T12:27:38;94464.41;;;14.94;54.89
15444;BME280;7822;48.146;11.576;2024-03-08T12:30:20;94449.38;;;14.96;55.28
15444;BME280;7822;48.146;11.576;2024-03-08T12:32:50;94451.22;;;14.96;55.57
15444;BME280;7822;48.146;11.576;2024-03-08T12:35:19;94452.00;;;14.96;55.96
15444;BME280;7822;48.146;11.576;2024-03-08T12:37:49;94446.78;;;14.96;55.80
15444;BME280;7822;48.146;11.576;2024-03-08T12:40:17;94441.56;;;14.96;55.88
15444;BME280;7822;48.146;11.576;2024-03-08T12:42:45;94444.16;;;14.96;55.95
15444;BME280;7822;48.146;11.576;2024-03-08T12:45:14;94443.19;;;14.97;55.97
15444;BME280;7822;48.146;11.576;2024-03-08T12:47:43;94432.75;;;14.97;56.08
15444;BME280;7822;48.146;11.576;2024-03-08T12:50:10;94438.78;;;14.98;56.04
15444;BME280;7822;48.146;11.576;2024-03-08T12:52:38;94429.31;;;14.97;56.33
15444;BME280;7822;48.146;11.576;2024-03-08T12:55:05;94429.31;;;14.97;56.44
15444;BME280;7822;48.146;11.576;2024-03-08T12:57:34;94426.72;;;14.97;56.64
15444;BME280;7822;48.146;11.576;2024-03-08T13:00:02;94418.88;;;14.97;56.73
15444;BME280;7822;48.146;11.576;2024-03-08T13:02:30;94426.72;;;14.97;56.29
15444;BME280;7822;48.146;11.576;2024-03-08T13:04:59;94413.66;;;14.97;56.75
15444;BME280;7822;48.146;11.576;2024-03-08T13:07:27;94415.44;;;14.96;56.45